sensor_id;sensor_type;location;lat;lon;timestamp;temperature;humidity
18690;DHT22;9782;52.930;15.562;2023-05-10T05:16:09;12.00;99.90
18690;DHT22;9782;52.930;15.562;2023-05-10T05:18:36;11.90;99.90
18690;DHT22;9782;52.930;15.562;2023-05-10T05:21:03;11.90;99.90
18690;DHT22;9782;52.930;15.562;2023-05-10T05:23:39;11.90;99.90
18690;DHT22;9782;52.930;15.562;2023-05-10T05:26:06;11.90;99.90
18690;DHT22;9782;52.930;15.562;2023-05-10T05:28:33;11.80;99.90
18690;DHT22;9782;52.930;15.562;2023-05-10T05:31:02;11.90;99.90
18690;DHT22;9782;52.930;15.562;2023-05-10T05:33:30;11.90;99.90
18690;DHT22;9782;52.930;15.562;2023-05-10T05:35:59;12.00;99.90
18690;DHT22;9782;52.930;15.562;2023-05-10T05:38:26;12.00;99.90
18690;DHT22;9782;52.930;15.562;2023-05-10T05:40:53;12.00;99.90
18690;DHT22;9782;52.930;15.562;2023-05-10T05:43:20;12.10;99.90
18690;DHT22;9782;52.930;15.562;2023-05-10T05:45:47;12.10;99.90
18690;DHT22;9782;52.930;15.562;2023-05-10T05:48:14;12.20;99.90
18690;DHT22;9782;52.930;15.562;2023-05-10T05:50:42;12.30;99.90
18690;DHT22;9782;52.930;15.562;2023-05-10T05:53:09;12.40;99.90
18690;DHT22;9782;52.930;15.562;2023-05-10T05:55:36;12.40;99.90
18690;DHT22;9782;52.930;15.562;2023-05-10T05:58:03;12.50;99.90
18690;DHT22;9782;52.930;15.562;2023-05-10T06:00:30;12.50;99.90
18690;DHT22;9782;52.930;15.562;2023-05-10T06:02:56;12.60;99.90
18690;DHT22;9782;52.930;15.562;2023-05-10T06:05:23;12.70;99.90
18690;DHT22;9782;52.930;15.562;2023-05-10T06:07:51;12.70;99.90
18690;DHT22;9782;52.930;15.562;2023-05-10T06:10:18;12.80;99.90
18690;DHT22;9782;52.930;15.562;2023-05-10T06:12:45;12.90;99.90
18690;DHT22;9782;52.930;15.562;2023-05-10T06:15:12;13.00;99.90
18690;DHT22;9782;52.930;15.562;2023-05-10T06:17:39;13.10;99.90
18690;DHT22;9782;52.930;15.562;2023-05-10T06:20:07;13.20;99.90
18690;DHT22;9782;52.930;15.562;2023-05-10T06:22:37;13.30;99.90
18690;DHT22;9782;52.930;15.562;2023-05-10T06:25:07;13.50;99.90
18690;DHT22;9782;52.930;15.562;2023-05-10T06:27:34;13.60;99.90
18690;DHT22;9782;52.930;15.562;2023-05-10T06:30:01;13.70;99.90
18690;DHT22;9782;52.930;15.562;2023-05-10T06:32:28;13.90;99.90
18690;DHT22;9782;52.930;15.562;2023-05-10T06:34:55;14.00;99.90
18690;DHT22;9782;52.930;15.562;2023-05-10T06:37:22;14.10;99.90
18690;DHT22;9782;52.930;15.562;2023-05-10T06:39:49;14.20;99.90
18690;DHT22;9782;52.930;15.562;2023-05-10T06:42:18;14.30;99.90
18690;DHT22;9782;52.930;15.562;2023-05-10T06:44:44;14.40;99.90
18690;DHT22;9782;52.930;15.562;2023-05-10T06:47:11;14.60;99.90
18690;DHT22;9782;52.930;15.562;2023-05-10T06:49:38;14.60;99.90
18690;DHT22;9782;52.930;15.562;2023-05-10T06:52:05;14.80;99.90
18690;DHT22;9782;52.930;15.562;2023-05-10T06:54:32;14.90;99.90
18690;DHT22;9782;52.930;15.562;2023-05-10T06:56:59;15.00;99.90
18690;DHT22;9782;52.930;15.562;2023-05-10T06:59:29;15.00;99.90
18690;DHT22;9782;52.930;15.562;2023-05-10T07:01:56;15.10;99.90
18690;DHT22;9782;52.930;15.562;2023-05-10T07:04:23;15.20;99.90
18690;DHT22;9782;52.930;15.562;2023-05-10T07:06:50;15.20;99.90
18690;DHT22;9782;52.930;15.562;2023-05-10T07:09:17;15.30;99.90
18690;DHT22;9782;52.930;15.562;2023-05-10T07:11:45;15.40;99.90
18690;DHT22;9782;52.930;15.562;2023-05-10T07:14:11;15.50;99.90
18690;DHT22;9782;52.930;15.562;2023-05-10T07:16:40;15.60;99.90
18690;DHT22;9782;52.930;15.562;2023-05-10T07:19:06;15.70;99.90
18690;DHT22;9782;52.930;15.562;2023-05-10T07:21:34;15.80;99.90
18690;DHT22;9782;52.930;15.562;2023-05-10T07:24:01;15.90;99.90
18690;DHT22;9782;52.930;15.562;2023-05-10T07:26:28;16.00;99.90
18690;DHT22;9782;52.930;15.562;2023-05-10T07:28:55;16.10;99.90
18690;DHT22;9782;52.930;15.562;2023-05-10T07:31:22;16.20;99.90
18690;DHT22;9782;52.930;15.562;2023-05-10T07:33:50;16.30;99.90
18690;DHT22;9782;52.930;15.562;2023-05-10T07:36:17;16.40;99.90
18690;DHT22;9782;52.930;15.562;2023-05-10T07:38:44;16.40;99.90
18690;DHT22;9782;52.930;15.562;2023-05-10T07:41:11;16.50;99.90
18690;DHT22;9782;52.930;15.562;2023-05-10T07:43:38;16.60;99.90
18690;DHT22;9782;52.930;15.562;2023-05-10T07:46:05;16.70;99.90
18690;DHT22;9782;52.930;15.562;2023-05-10T07:48:33;16.80;99.90
18690;DHT22;9782;52.930;15.562;2023-05-10T07:51:01;16.90;99.90
18690;DHT22;9782;52.930;15.562;2023-05-10T07:53:28;16.90;99.90
18690;DHT22;9782;52.930;15.562;2023-05-10T07:55:57;17.00;99.90
18690;DHT22;9782;52.930;15.562;2023-05-10T07:58:24;17.10;99.90
18690;DHT22;9782;52.930;15.562;2023-05-10T08:00:51;17.20;99.90
18690;DHT22;9782;52.930;15.562;2023-05-10T08:03:22;17.20;99.90
18690;DHT22;9782;52.930;15.562;2023-05-10T08:05:49;17.30;99.90
18690;DHT22;9782;52.930;15.562;2023-05-10T08:08:17;17.40;99.90
18690;DHT22;9782;52.930;15.562;2023-05-10T08:10:45;17.50;99.90
18690;DHT22;9782;52.930;15.562;2023-05-10T08:13:12;17.50;99.90
18690;DHT22;9782;52.930;15.562;2023-05-10T08:15:39;17.60;99.90
18690;DHT22;9782;52.930;15.562;2023-05-10T08:18:06;17.70;99.90
18690;DHT22;9782;52.930;15.562;2023-05-10T08:20:33;17.80;99.90
18690;DHT22;9782;52.930;15.562;2023-05-10T08:22:59;17.80;99.90
18690;DHT22;9782;52.930;15.562;2023-05-10T08:25:28;17.80;99.90
18690;DHT22;9782;52.930;15.562;2023-05-10T08:27:55;17.80;99.90
18690;DHT22;9782;52.930;15.562;2023-05-10T08:30:22;17.90;99.90
18690;DHT22;9782;52.930;15.562;2023-05-10T08:32:49;18.00;99.90
18690;DHT22;9782;52.930;15.562;2023-05-10T08:35:16;18.10;99.90
18690;DHT22;9782;52.930;15.562;2023-05-10T08:37:43;18.10;99.90
18690;DHT22;9782;52.930;15.562;2023-05-10T08:40:11;18.20;99.90
18690;DHT22;9782;52.930;15.562;2023-05-10T08:42:42;18.30;99.90
18690;DHT22;9782;52.930;15.562;2023-05-10T08:45:10;18.40;99.90
18690;DHT22;9782;52.930;15.562;2023-05-10T08:47:38;18.40;99.90
18690;DHT22;9782;52.930;15.562;2023-05-10T08:50:06;18.50;99.90
18690;DHT22;9782;52.930;15.562;2023-05-10T08:52:38;18.60;99.90
18690;DHT22;9782;52.930;15.562;2023-05-10T08:55:05;18.60;99.90
18690;DHT22;9782;52.930;15.562;2023-05-10T08:57:32;18.70;99.90
18690;DHT22;9782;52.930;15.562;2023-05-10T09:00:01;18.70;99.90
18690;DHT22;9782;52.930;15.562;2023-05-10T09:02:29;18.70;99.90
18690;DHT22;9782;52.930;15.562;2023-05-10T09:04:56;18.70;99.90
18690;DHT22;9782;52.930;15.562;2023-05-10T09:07:23;18.80;99.90
18690;DHT22;9782;52.930;15.562;2023-05-10T09:09:51;18.90;99.90
18690;DHT22;9782;52.930;15.562;2023-05-10T09:12:18;18.90;99.90
18690;DHT22;9782;52.930;15.562;2023-05-10T09:14:46;18.90;99.90
18690;DHT22;9782;52.930;15.562;2023-05-10T09:17:14;19.00;99.90
18690;DHT22;9782;52.930;15.562;2023-05-10T09:19:41;19.00;99.90
18690;DHT22;9782;52.930;15.562;2023-05-10T09:22:08;19.00;99.90
18690;DHT22;9782;52.930;15.562;2023-05-10T09:24:36;19.10;99.90
18690;DHT22;9782;52.930;15.562;2023-05-10T09:27:07;19.20;99.90
18690;DHT22;9782;52.930;15.562;2023-05-10T09:29:42;19.20;99.90
18690;DHT22;9782;52.930;15.562;2023-05-10T09:32:09;19.30;99.90
18690;DHT22;9782;52.930;15.562;2023-05-10T09:34:37;19.30;99.90
18690;DHT22;9782;52.930;15.562;2023-05-10T09:37:05;19.30;99.90
18690;DHT22;9782;52.930;15.562;2023-05-10T09:39:34;19.40;99.90
18690;DHT22;9782;52.930;15.562;2023-05-10T09:42:03;19.30;99.90
18690;DHT22;9782;52.930;15.562;2023-05-10T09:44:31;19.40;99.90
18690;DHT22;9782;52.930;15.562;2023-05-10T09:46:58;19.50;99.90
18690;DHT22;9782;52.930;15.562;2023-05-10T09:49:25;19.60;99.90
18690;DHT22;9782;52.930;15.562;2023-05-10T09:52:02;19.60;99.90
18690;DHT22;9782;52.930;15.562;2023-05-10T09:54:29;19.60;99.90
18690;DHT22;9782;52.930;15.562;2023-05-10T09:56:56;19.80;99.90
18690;DHT22;9782;52.930;15.562;2023-05-10T09:59:25;19.80;99.90
18690;DHT22;9782;52.930;15.562;2023-05-10T10:01:53;19.80;99.30
18690;DHT22;9782;52.930;15.562;2023-05-10T10:04:22;19.90;99.70
18690;DHT22;9782;52.930;15.562;2023-05-10T10:07:00;19.90;98.70
18690;DHT22;9782;52.930;15.562;2023-05-10T10:09:28;19.90;99.80
18690;DHT22;9782;52.930;15.562;2023-05-10T10:11:55;19.90;89.80
18690;DHT22;9782;52.930;15.562;2023-05-10T10:14:22;20.00;94.80
18690;DHT22;9782;52.930;15.562;2023-05-10T10:16:50;20.00;95.10
18690;DHT22;9782;52.930;15.562;2023-05-10T10:19:18;20.00;93.80
18690;DHT22;9782;52.930;15.562;2023-05-10T10:21:45;20.10;93.70
18690;DHT22;9782;52.930;15.562;2023-05-10T10:24:13;20.10;94.00
18690;DHT22;9782;52.930;15.562;2023-05-10T10:26:40;20.20;92.40
18690;DHT22;9782;52.930;15.562;2023-05-10T10:29:18;20.20;94.50
18690;DHT22;9782;52.930;15.562;2023-05-10T10:31:51;20.20;95.20
18690;DHT22;9782;52.930;15.562;2023-05-10T10:34:25;20.20;95.30
18690;DHT22;9782;52.930;15.562;2023-05-10T10:36:54;20.20;92.50
18690;DHT22;9782;52.930;15.562;2023-05-10T10:39:23;20.30;90.90
18690;DHT22;9782;52.930;15.562;2023-05-10T10:41:52;20.30;93.00
18690;DHT22;9782;52.930;15.562;2023-05-10T10:44:28;20.40;93.30
18690;DHT22;9782;52.930;15.562;2023-05-10T10:47:04;20.40;93.60
18690;DHT22;9782;52.930;15.562;2023-05-10T10:49:38;20.40;92.60
18690;DHT22;9782;52.930;15.562;2023-05-10T10:52:25;20.40;91.10
18690;DHT22;9782;52.930;15.562;2023-05-10T10:54:58;20.30;92.80
18690;DHT22;9782;52.930;15.562;2023-05-10T10:57:27;20.40;92.50
18690;DHT22;9782;52.930;15.562;2023-05-10T11:00:23;20.40;84.00
18690;DHT22;9782;52.930;15.562;2023-05-10T11:02:51;20.40;92.50
18690;DHT22;9782;52.930;15.562;2023-05-10T11:05:33;20.40;91.50
18690;DHT22;9782;52.930;15.562;2023-05-10T11:08:07;20.40;92.40
18690;DHT22;9782;52.930;15.562;2023-05-10T11:10:36;20.50;91.30
18690;DHT22;9782;52.930;15.562;2023-05-10T11:13:04;20.50;84.10
18690;DHT22;9782;52.930;15.562;2023-05-10T11:15:38;20.50;90.10
18690;DHT22;9782;52.930;15.562;2023-05-10T11:18:18;20.50;90.60
18690;DHT22;9782;52.930;15.562;2023-05-10T11:20:50;20.60;86.80
18690;DHT22;9782;52.930;15.562;2023-05-10T11:23:17;20.70;91.20
18690;DHT22;9782;52.930;15.562;2023-05-10T11:25:47;20.80;86.20
18690;DHT22;9782;52.930;15.562;2023-05-10T11:28:17;20.90;91.20
18690;DHT22;9782;52.930;15.562;2023-05-10T11:30:44;20.90;87.00
18690;DHT22;9782;52.930;15.562;2023-05-10T11:33:15;20.90;83.60
18690;DHT22;9782;52.930;15.562;2023-05-10T11:35:43;21.00;86.20
18690;DHT22;9782;52.930;15.562;2023-05-10T11:38:11;21.00;80.00
18690;DHT22;9782;52.930;15.562;2023-05-10T11:40:39;21.00;87.30
18690;DHT22;9782;52.930;15.562;2023-05-10T11:43:09;21.00;89.40
18690;DHT22;9782;52.930;15.562;2023-05-10T11:45:37;21.10;88.10
18690;DHT22;9782;52.930;15.562;2023-05-10T11:48:04;21.20;73.70
18690;DHT22;9782;52.930;15.562;2023-05-10T11:50:31;21.30;84.80
18690;DHT22;9782;52.930;15.562;2023-05-10T11:52:58;21.30;87.40
18690;DHT22;9782;52.930;15.562;2023-05-10T11:55:25;21.30;82.40
18690;DHT22;9782;52.930;15.562;2023-05-10T11:57:52;21.30;80.90
18690;DHT22;9782;52.930;15.562;2023-05-10T12:00:21;21.30;78.90
18690;DHT22;9782;52.930;15.562;2023-05-10T12:02:48;21.40;80.60
18690;DHT22;9782;52.930;15.562;2023-05-10T12:05:15;21.30;75.00
18690;DHT22;9782;52.930;15.562;2023-05-10T12:07:42;21.40;76.90
18690;DHT22;9782;52.930;15.562;2023-05-10T12:10:10;21.40;76.00
18690;DHT22;9782;52.930;15.562;2023-05-10T12:12:40;21.40;73.60
18690;DHT22;9782;52.930;15.562;2023-05-10T12:15:12;21.40;78.60
18690;DHT22;9782;52.930;15.562;2023-05-10T12:17:45;21.40;73.70
18690;DHT22;9782;52.930;15.562;2023-05-10T12:20:19;21.40;73.20
18690;DHT22;9782;52.930;15.562;2023-05-10T12:22:48;21.40;78.40
18690;DHT22;9782;52.930;15.562;2023-05-10T12:25:16;21.50;80.20
18690;DHT22;9782;52.930;15.562;2023-05-10T12:27:49;21.60;77.50
18690;DHT22;9782;52.930;15.562;2023-05-10T12:30:19;21.70;78.20
18690;DHT22;9782;52.930;15.562;2023-05-10T12:32:48;21.70;75.80
18690;DHT22;9782;52.930;15.562;2023-05-10T12:35:15;21.80;74.60
18690;DHT22;9782;52.930;15.562;2023-05-10T12:37:43;21.80;74.30
18690;DHT22;9782;52.930;15.562;2023-05-10T12:40:10;21.80;74.00
18690;DHT22;9782;52.930;15.562;2023-05-10T12:42:38;21.90;75.00
18690;DHT22;9782;52.930;15.562;2023-05-10T12:45:06;21.90;70.30
18690;DHT22;9782;52.930;15.562;2023-05-10T12:47:34;21.80;70.10
18690;DHT22;9782;52.930;15.562;2023-05-10T12:50:02;21.80;69.10
18690;DHT22;9782;52.930;15.562;2023-05-10T12:52:30;21.80;70.70
18690;DHT22;9782;52.930;15.562;2023-05-10T12:54:58;21.80;67.80
18690;DHT22;9782;52.930;15.562;2023-05-10T12:57:25;21.80;66.80
18690;DHT22;9782;52.930;15.562;2023-05-10T12:59:52;21.80;66.90
18690;DHT22;9782;52.930;15.562;2023-05-10T13:02:19;21.80;63.50
18690;DHT22;9782;52.930;15.562;2023-05-10T13:04:47;21.80;64.60
18690;DHT22;9782;52.930;15.562;2023-05-10T13:07:15;21.80;64.50
18690;DHT22;9782;52.930;15.562;2023-05-10T13:09:41;21.90;64.20
18690;DHT22;9782;52.930;15.562;2023-05-10T13:12:08;21.90;65.70
18690;DHT22;9782;52.930;15.562;2023-05-10T13:14:35;22.00;65.60
18690;DHT22;9782;52.930;15.562;2023-05-10T13:17:02;22.10;65.30
18690;DHT22;9782;52.930;15.562;2023-05-10T13:19:29;22.10;64.00
18690;DHT22;9782;52.930;15.562;2023-05-10T13:21:56;22.10;61.80
18690;DHT22;9782;52.930;15.562;2023-05-10T13:24:24;22.00;59.60
18690;DHT22;9782;52.930;15.562;2023-05-10T13:26:51;22.00;57.80
18690;DHT22;9782;52.930;15.562;2023-05-10T13:29:18;22.00;59.20
18690;DHT22;9782;52.930;15.562;2023-05-10T13:31:46;22.00;60.40
18690;DHT22;9782;52.930;15.562;2023-05-10T13:34:13;22.00;59.60
18690;DHT22;9782;52.930;15.562;2023-05-10T13:36:39;22.00;58.20
18690;DHT22;9782;52.930;15.562;2023-05-10T13:39:06;22.00;58.20
18690;DHT22;9782;52.930;15.562;2023-05-10T13:41:35;22.10;58.70
18690;DHT22;9782;52.930;15.562;2023-05-10T13:44:02;22.10;59.00
18690;DHT22;9782;52.930;15.562;2023-05-10T13:46:29;22.20;57.40
18690;DHT22;9782;52.930;15.562;2023-05-10T13:48:55;22.20;58.70
18690;DHT22;9782;52.930;15.562;2023-05-10T13:51:23;22.20;57.40
18690;DHT22;9782;52.930;15.562;2023-05-10T13:53:50;22.10;54.80
18690;DHT22;9782;52.930;15.562;2023-05-10T13:56:17;22.00;52.90
18690;DHT22;9782;52.930;15.562;2023-05-10T13:58:45;22.10;48.30
18690;DHT22;9782;52.930;15.562;2023-05-10T14:01:12;22.10;53.30
18690;DHT22;9782;52.930;15.562;2023-05-10T14:03:39;22.10;52.30
18690;DHT22;9782;52.930;15.562;2023-05-10T14:06:07;22.20;53.40
18690;DHT22;9782;52.930;15.562;2023-05-10T14:08:34;22.20;48.50
18690;DHT22;9782;52.930;15.562;2023-05-10T14:11:01;22.20;55.40
18690;DHT22;9782;52.930;15.562;2023-05-10T14:13:28;22.20;75.80
18690;DHT22;9782;52.930;15.562;2023-05-10T14:15:56;22.30;54.20
18690;DHT22;9782;52.930;15.562;2023-05-10T14:18:25;22.40;53.20
18690;DHT22;9782;52.930;15.562;2023-05-10T14:20:52;22.30;53.70
18690;DHT22;9782;52.930;15.562;2023-05-10T14:23:19;22.30;54.70
18690;DHT22;9782;52.930;15.562;2023-05-10T14:25:49;22.30;53.10
18690;DHT22;9782;52.930;15.562;2023-05-10T14:28:16;22.30;53.20
18690;DHT22;9782;52.930;15.562;2023-05-10T14:30:43;22.30;53.30
18690;DHT22;9782;52.930;15.562;2023-05-10T14:33:12;22.40;53.40
18690;DHT22;9782;52.930;15.562;2023-05-10T14:35:39;22.40;44.30
18690;DHT22;9782;52.930;15.562;2023-05-10T14:38:06;22.40;48.10
18690;DHT22;9782;52.930;15.562;2023-05-10T14:40:32;22.40;47.40
18690;DHT22;9782;52.930;15.562;2023-05-10T14:42:59;22.40;47.40
18690;DHT22;9782;52.930;15.562;2023-05-10T14:45:26;22.50;46.40
18690;DHT22;9782;52.930;15.562;2023-05-10T14:47:53;22.50;48.30
18690;DHT22;9782;52.930;15.562;2023-05-10T14:50:21;22.40;43.70
18690;DHT22;9782;52.930;15.562;2023-05-10T14:52:48;22.40;44.90
18690;DHT22;9782;52.930;15.562;2023-05-10T14:55:15;22.40;35.50
18690;DHT22;9782;52.930;15.562;2023-05-10T14:57:42;22.30;45.00
18690;DHT22;9782;52.930;15.562;2023-05-10T15:00:13;22.30;47.30
18690;DHT22;9782;52.930;15.562;2023-05-10T15:02:41;22.40;49.60
18690;DHT22;9782;52.930;15.562;2023-05-10T15:05:08;22.40;42.20
18690;DHT22;9782;52.930;15.562;2023-05-10T15:07:37;22.40;38.10
18690;DHT22;9782;52.930;15.562;2023-05-10T15:10:04;22.40;45.20
18690;DHT22;9782;52.930;15.562;2023-05-10T15:12:31;22.40;48.40
18690;DHT22;9782;52.930;15.562;2023-05-10T15:14:58;22.40;45.90
18690;DHT22;9782;52.930;15.562;2023-05-10T15:17:25;22.50;45.30
18690;DHT22;9782;52.930;15.562;2023-05-10T15:19:52;22.50;46.00
18690;DHT22;9782;52.930;15.562;2023-05-10T15:22:19;22.70;46.50
18690;DHT22;9782;52.930;15.562;2023-05-10T15:24:47;22.80;45.30
18690;DHT22;9782;52.930;15.562;2023-05-10T15:27:14;22.90;43.90
18690;DHT22;9782;52.930;15.562;2023-05-10T15:29:41;22.80;44.40
18690;DHT22;9782;52.930;15.562;2023-05-10T15:32:08;22.80;44.60
18690;DHT22;9782;52.930;15.562;2023-05-10T15:34:35;22.70;42.40
18690;DHT22;9782;52.930;15.562;2023-05-10T15:37:02;22.60;41.90
18690;DHT22;9782;52.930;15.562;2023-05-10T15:39:29;22.50;39.80
18690;DHT22;9782;52.930;15.562;2023-05-10T15:41:57;22.40;38.80
18690;DHT22;9782;52.930;15.562;2023-05-10T15:44:24;22.40;40.30
18690;DHT22;9782;52.930;15.562;2023-05-10T15:46:51;22.30;32.60
18690;DHT22;9782;52.930;15.562;2023-05-10T15:49:18;22.30;35.80
18690;DHT22;9782;52.930;15.562;2023-05-10T15:51:45;22.30;31.80
18690;DHT22;9782;52.930;15.562;2023-05-10T15:54:12;22.30;29.20
18690;DHT22;9782;52.930;15.562;2023-05-10T15:56:39;22.30;37.10
18690;DHT22;9782;52.930;15.562;2023-05-10T15:59:08;22.20;40.70
18690;DHT22;9782;52.930;15.562;2023-05-10T16:01:36;22.20;41.30
18690;DHT22;9782;52.930;15.562;2023-05-10T16:04:03;22.20;44.20
18690;DHT22;9782;52.930;15.562;2023-05-10T16:06:30;22.20;43.90
18690;DHT22;9782;52.930;15.562;2023-05-10T16:08:57;22.30;41.70
18690;DHT22;9782;52.930;15.562;2023-05-10T16:11:24;22.30;44.10
18690;DHT22;9782;52.930;15.562;2023-05-10T16:13:50;22.30;43.80
18690;DHT22;9782;52.930;15.562;2023-05-10T16:16:19;22.20;42.80
18690;DHT22;9782;52.930;15.562;2023-05-10T16:18:46;22.20;40.70
18690;DHT22;9782;52.930;15.562;2023-05-10T16:21:13;22.10;39.90
18690;DHT22;9782;52.930;15.562;2023-05-10T16:23:40;22.10;40.30
18690;DHT22;9782;52.930;15.562;2023-05-10T16:26:07;22.10;40.60
18690;DHT22;9782;52.930;15.562;2023-05-10T16:28:34;22.10;38.50
18690;DHT22;9782;52.930;15.562;2023-05-10T16:31:02;21.90;36.20
18690;DHT22;9782;52.930;15.562;2023-05-10T16:33:30;21.70;42.10
18690;DHT22;9782;52.930;15.562;2023-05-10T16:35:57;21.60;40.40
18690;DHT22;9782;52.930;15.562;2023-05-10T16:38:24;21.40;38.90
18690;DHT22;9782;52.930;15.562;2023-05-10T16:40:51;21.40;40.70
18690;DHT22;9782;52.930;15.562;2023-05-10T16:43:18;21.50;38.60
18690;DHT22;9782;52.930;15.562;2023-05-10T16:45:45;21.60;30.50
18690;DHT22;9782;52.930;15.562;2023-05-10T16:48:11;21.70;32.20
18690;DHT22;9782;52.930;15.562;2023-05-10T16:50:42;21.90;39.20
18690;DHT22;9782;52.930;15.562;2023-05-10T16:53:09;22.00;39.50
18690;DHT22;9782;52.930;15.562;2023-05-10T16:55:36;22.10;32.00
18690;DHT22;9782;52.930;15.562;2023-05-10T16:58:03;22.30;60.20
18690;DHT22;9782;52.930;15.562;2023-05-10T17:00:30;22.60;32.60
18690;DHT22;9782;52.930;15.562;2023-05-10T17:02:57;22.80;35.00
18690;DHT22;9782;52.930;15.562;2023-05-10T17:05:24;23.00;28.90
18690;DHT22;9782;52.930;15.562;2023-05-10T17:07:53;23.10;38.30
18690;DHT22;9782;52.930;15.562;2023-05-10T17:10:20;22.80;32.60
18690;DHT22;9782;52.930;15.562;2023-05-10T17:12:47;22.40;35.20
18690;DHT22;9782;52.930;15.562;2023-05-10T17:15:14;21.90;32.70
18690;DHT22;9782;52.930;15.562;2023-05-10T17:17:43;21.60;35.90
18690;DHT22;9782;52.930;15.562;2023-05-10T17:20:10;21.60;29.50
18690;DHT22;9782;52.930;15.562;2023-05-10T17:22:37;21.90;29.90
18690;DHT22;9782;52.930;15.562;2023-05-10T17:25:06;22.20;34.50
18690;DHT22;9782;52.930;15.562;2023-05-10T17:27:33;22.60;36.90
18690;DHT22;9782;52.930;15.562;2023-05-10T17:30:00;23.00;34.40
18690;DHT22;9782;52.930;15.562;2023-05-10T17:32:27;23.20;35.00
18690;DHT22;9782;52.930;15.562;2023-05-10T17:34:53;23.50;33.40
18690;DHT22;9782;52.930;15.562;2023-05-10T17:37:20;23.50;33.00
18690;DHT22;9782;52.930;15.562;2023-05-10T17:39:47;23.60;30.30
18690;DHT22;9782;52.930;15.562;2023-05-10T17:42:15;23.40;28.20
18690;DHT22;9782;52.930;15.562;2023-05-10T17:44:43;22.80;30.50
18690;DHT22;9782;52.930;15.562;2023-05-10T17:47:10;22.10;29.80
18690;DHT22;9782;52.930;15.562;2023-05-10T17:49:37;21.50;28.30
18690;DHT22;9782;52.930;15.562;2023-05-10T17:52:04;20.90;31.00
18690;DHT22;9782;52.930;15.562;2023-05-10T17:54:31;20.50;30.20
18690;DHT22;9782;52.930;15.562;2023-05-10T17:56:58;20.20;30.80
18690;DHT22;9782;52.930;15.562;2023-05-10T17:59:27;20.00;31.30
18690;DHT22;9782;52.930;15.562;2023-05-10T18:01:53;19.90;32.00
18690;DHT22;9782;52.930;15.562;2023-05-10T18:04:20;19.70;33.20
18690;DHT22;9782;52.930;15.562;2023-05-10T18:06:47;19.50;31.80
18690;DHT22;9782;52.930;15.562;2023-05-10T18:09:14;19.40;35.20
18690;DHT22;9782;52.930;15.562;2023-05-10T18:11:42;19.20;36.50
18690;DHT22;9782;52.930;15.562;2023-05-10T18:14:09;19.10;36.20
18690;DHT22;9782;52.930;15.562;2023-05-10T18:16:37;19.00;36.40
18690;DHT22;9782;52.930;15.562;2023-05-10T18:19:04;18.90;36.60
18690;DHT22;9782;52.930;15.562;2023-05-10T18:21:30;18.80;36.80
18690;DHT22;9782;52.930;15.562;2023-05-10T18:23:57;18.80;37.00
18690;DHT22;9782;52.930;15.562;2023-05-10T18:26:24;18.70;37.30
18690;DHT22;9782;52.930;15.562;2023-05-10T18:28:52;18.50;37.50
18690;DHT22;9782;52.930;15.562;2023-05-10T18:31:18;18.40;37.50
18690;DHT22;9782;52.930;15.562;2023-05-10T18:33:47;18.30;36.70
18690;DHT22;9782;52.930;15.562;2023-05-10T18:36:13;18.10;35.30
18690;DHT22;9782;52.930;15.562;2023-05-10T18:38:41;18.00;59.80
18690;DHT22;9782;52.930;15.562;2023-05-10T18:41:08;17.80;36.30
18690;DHT22;9782;52.930;15.562;2023-05-10T18:43:36;17.70;40.10
18690;DHT22;9782;52.930;15.562;2023-05-10T18:46:03;17.60;39.50
18690;DHT22;9782;52.930;15.562;2023-05-10T18:48:30;17.40;40.60
18690;DHT22;9782;52.930;15.562;2023-05-10T18:50:58;17.30;41.60
18690;DHT22;9782;52.930;15.562;2023-05-10T18:53:25;17.20;64.30
18690;DHT22;9782;52.930;15.562;2023-05-10T18:55:55;17.20;41.80
18690;DHT22;9782;52.930;15.562;2023-05-10T18:58:23;17.00;44.80
18690;DHT22;9782;52.930;15.562;2023-05-10T19:00:51;17.00;42.90
18690;DHT22;9782;52.930;15.562;2023-05-10T19:03:18;16.80;44.50
18690;DHT22;9782;52.930;15.562;2023-05-10T19:05:44;16.80;43.80
18690;DHT22;9782;52.930;15.562;2023-05-10T19:08:14;16.80;45.50
18690;DHT22;9782;52.930;15.562;2023-05-10T19:10:41;16.70;47.20
18690;DHT22;9782;52.930;15.562;2023-05-10T19:13:08;16.70;44.90
18690;DHT22;9782;52.930;15.562;2023-05-10T19:15:35;16.60;44.20
18690;DHT22;9782;52.930;15.562;2023-05-10T19:18:02;16.60;45.00
18690;DHT22;9782;52.930;15.562;2023-05-10T19:20:31;16.50;46.30
18690;DHT22;9782;52.930;15.562;2023-05-10T19:22:58;16.50;43.80
18690;DHT22;9782;52.930;15.562;2023-05-10T19:25:26;16.40;46.90
18690;DHT22;9782;52.930;15.562;2023-05-10T19:27:54;16.40;46.30
18690;DHT22;9782;52.930;15.562;2023-05-10T19:30:22;16.40;39.70
18690;DHT22;9782;52.930;15.562;2023-05-10T19:32:49;16.40;44.80
18690;DHT22;9782;52.930;15.562;2023-05-10T19:35:16;16.30;47.30
18690;DHT22;9782;52.930;15.562;2023-05-10T19:37:43;16.30;48.90
18690;DHT22;9782;52.930;15.562;2023-05-10T19:40:12;16.20;49.00
18690;DHT22;9782;52.930;15.562;2023-05-10T19:42:41;16.20;50.70
18690;DHT22;9782;52.930;15.562;2023-05-10T19:45:09;16.20;51.20
18690;DHT22;9782;52.930;15.562;2023-05-10T19:47:36;16.10;53.20
18690;DHT22;9782;52.930;15.562;2023-05-10T19:50:03;16.10;51.20
18690;DHT22;9782;52.930;15.562;2023-05-10T19:52:31;16.00;79.50
18690;DHT22;9782;52.930;15.562;2023-05-10T19:54:58;16.00;52.00
18690;DHT22;9782;52.930;15.562;2023-05-10T19:57:25;15.90;52.00
18690;DHT22;9782;52.930;15.562;2023-05-10T19:59:53;15.90;52.50
18690;DHT22;9782;52.930;15.562;2023-05-10T20:02:20;15.90;50.90
18690;DHT22;9782;52.930;15.562;2023-05-10T20:04:46;15.90;49.30
18690;DHT22;9782;52.930;15.562;2023-05-10T20:07:14;15.80;48.40
18690;DHT22;9782;52.930;15.562;2023-05-10T20:09:41;15.80;54.30
18690;DHT22;9782;52.930;15.562;2023-05-10T20:12:08;15.70;55.10
18690;DHT22;9782;52.930;15.562;2023-05-10T20:14:35;15.70;53.80
18690;DHT22;9782;52.930;15.562;2023-05-10T20:17:04;15.70;53.50
18690;DHT22;9782;52.930;15.562;2023-05-10T20:19:30;15.60;53.40
18690;DHT22;9782;52.930;15.562;2023-05-10T20:21:58;15.60;51.70
18690;DHT22;9782;52.930;15.562;2023-05-10T20:24:28;15.50;54.00
18690;DHT22;9782;52.930;15.562;2023-05-10T20:26:55;15.50;56.20
18690;DHT22;9782;52.930;15.562;2023-05-10T20:29:22;15.50;53.50
18690;DHT22;9782;52.930;15.562;2023-05-10T20:31:48;15.50;54.50
18690;DHT22;9782;52.930;15.562;2023-05-10T20:34:17;15.50;56.20
18690;DHT22;9782;52.930;15.562;2023-05-10T20:36:44;15.50;51.00
18690;DHT22;9782;52.930;15.562;2023-05-10T20:39:11;15.50;51.40
18690;DHT22;9782;52.930;15.562;2023-05-10T20:41:38;15.50;53.30
18690;DHT22;9782;52.930;15.562;2023-05-10T20:44:05;15.50;57.00
18690;DHT22;9782;52.930;15.562;2023-05-10T20:46:32;15.50;56.60
18690;DHT22;9782;52.930;15.562;2023-05-10T20:48:59;15.50;58.50